sensor_id;sensor_type;location;lat;lon;timestamp;pressure;altitude;pressure_sealevel;temperature;humidity
19208;BME280;9737;59.466;18.036;2023-12-14T00:00:20;92858.19;;;-5.46;84.41
19208;BME280;9737;59.466;18.036;2023-12-14T00:02:48;92829.13;;;-5.55;84.45
19208;BME280;9737;59.466;18.036;2023-12-14T00:05:16;92817.41;;;-5.57;84.50
19208;BME280;9737;59.466;18.036;2023-12-14T00:07:46;92829.13;;;-5.55;84.64
19208;BME280;9737;59.466;18.036;2023-12-14T00:10:13;92820.78;;;-5.57;84.60
19208;BME280;9737;59.466;18.036;2023-12-14T00:12:43;92819.19;;;-5.58;84.45
19208;BME280;9737;59.466;18.036;2023-12-14T00:15:10;92820.78;;;-5.57;84.54
19208;BME280;9737;59.466;18.036;2023-12-14T00:17:38;92826.53;;;-5.55;84.44
19208;BME280;9737;59.466;18.036;2023-12-14T00:20:07;92835.88;;;-5.54;84.44
19208;BME280;9737;59.466;18.036;2023-12-14T00:22:35;92849.03;;;-5.49;84.55
19208;BME280;9737;59.466;18.036;2023-12-14T00:25:06;92838.28;;;-5.52;84.64
19208;BME280;9737;59.466;18.036;2023-12-14T00:27:34;92834.09;;;-5.53;84.43
19208;BME280;9737;59.466;18.036;2023-12-14T00:30:02;92824.34;;;-5.58;84.40
19208;BME280;9737;59.466;18.036;2023-12-14T00:32:30;92816.81;;;-5.59;84.51
19208;BME280;9737;59.466;18.036;2023-12-14T00:34:58;92816.59;;;-5.58;84.31
19208;BME280;9737;59.466;18.036;2023-12-14T00:37:26;92822.56;;;-5.57;84.36
19208;BME280;9737;59.466;18.036;2023-12-14T00:39:54;92840.66;;;-5.51;84.79
19208;BME280;9737;59.466;18.036;2023-12-14T00:42:23;92830.72;;;-5.54;84.30
19208;BME280;9737;59.466;18.036;2023-12-14T00:44:52;92839.88;;;-5.51;84.39
19208;BME280;9737;59.466;18.036;2023-12-14T00:47:19;92824.94;;;-5.56;84.36
19208;BME280;9737;59.466;18.036;2023-12-14T00:49:47;92795.53;;;-5.68;84.61
19208;BME280;9737;59.466;18.036;2023-12-14T00:52:15;92788.97;;;-5.64;84.53
19208;BME280;9737;59.466;18.036;2023-12-14T00:54:44;92814.41;;;-5.61;84.39
19208;BME280;9737;59.466;18.036;2023-12-14T00:57:12;92803.28;;;-5.62;84.33
19208;BME280;9737;59.466;18.036;2023-12-14T00:59:41;92823.38;;;-5.57;84.48
19208;BME280;9737;59.466;18.036;2023-12-14T01:02:11;92800.91;;;-5.63;84.40
19208;BME280;9737;59.466;18.036;2023-12-14T01:04:39;92814.41;;;-5.61;84.51
19208;BME280;9737;59.466;18.036;2023-12-14T01:07:08;92821.38;;;-5.55;84.50
19208;BME280;9737;59.466;18.036;2023-12-14T01:09:35;92807.66;;;-5.62;84.51
19208;BME280;9737;59.466;18.036;2023-12-14T01:12:04;92788.97;;;-5.64;84.29
19208;BME280;9737;59.466;18.036;2023-12-14T01:14:32;92807.66;;;-5.62;84.28
19208;BME280;9737;59.466;18.036;2023-12-14T01:17:02;92795.91;;;-5.65;84.41
19208;BME280;9737;59.466;18.036;2023-12-14T01:19:31;92795.91;;;-5.65;84.32
19208;BME280;9737;59.466;18.036;2023-12-14T01:21:59;92799.91;;;-5.62;84.27
19208;BME280;9737;59.466;18.036;2023-12-14T01:24:27;92784.97;;;-5.67;84.57
19208;BME280;9737;59.466;18.036;2023-12-14T01:26:56;92761.53;;;-5.72;84.46
19208;BME280;9737;59.466;18.036;2023-12-14T01:29:23;92763.50;;;-5.74;84.35
19208;BME280;9737;59.466;18.036;2023-12-14T01:31:52;92770.88;;;-5.71;84.42
19208;BME280;9737;59.466;18.036;2023-12-14T01:34:21;92761.94;;;-5.75;84.28
19208;BME280;9737;59.466;18.036;2023-12-14T01:36:49;92765.50;;;-5.69;84.28
19208;BME280;9737;59.466;18.036;2023-12-14T01:39:17;92803.28;;;-5.62;84.63
19208;BME280;9737;59.466;18.036;2023-12-14T01:41:44;92798.91;;;-5.61;84.10
19208;BME280;9737;59.466;18.036;2023-12-14T01:44:12;92794.94;;;-5.64;84.04
19208;BME280;9737;59.466;18.036;2023-12-14T01:46:40;92793.53;;;-5.66;84.18
19208;BME280;9737;59.466;18.036;2023-12-14T01:49:08;92778.22;;;-5.68;84.59
19208;BME280;9737;59.466;18.036;2023-12-14T01:51:37;92758.16;;;-5.72;84.42
19208;BME280;9737;59.466;18.036;2023-12-14T01:54:05;92769.88;;;-5.70;84.14
19208;BME280;9737;59.466;18.036;2023-12-14T01:56:33;92775.03;;;-5.70;84.06
19208;BME280;9737;59.466;18.036;2023-12-14T01:59:00;92782.59;;;-5.68;84.59
19208;BME280;9737;59.466;18.036;2023-12-14T02:01:33;92779.03;;;-5.67;84.57
19208;BME280;9737;59.466;18.036;2023-12-14T02:04:06;92779.03;;;-5.67;84.38
19208;BME280;9737;59.466;18.036;2023-12-14T02:06:34;92765.91;;;-5.72;84.53
19208;BME280;9737;59.466;18.036;2023-12-14T02:09:03;92767.50;;;-5.71;84.45
19208;BME280;9737;59.466;18.036;2023-12-14T02:11:31;92777.84;;;-5.71;84.14
19208;BME280;9737;59.466;18.036;2023-12-14T02:14:03;92759.13;;;-5.73;84.39
19208;BME280;9737;59.466;18.036;2023-12-14T02:16:31;92763.13;;;-5.71;83.99
19208;BME280;9737;59.466;18.036;2023-12-14T02:18:59;92774.84;;;-5.68;84.25
19208;BME280;9737;59.466;18.036;2023-12-14T02:21:28;92780.81;;;-5.68;84.34
19208;BME280;9737;59.466;18.036;2023-12-14T02:23:58;92751.59;;;-5.75;84.24
19208;BME280;9737;59.466;18.036;2023-12-14T02:26:26;92750.78;;;-5.75;84.42
19208;BME280;9737;59.466;18.036;2023-12-14T02:28:54;92760.72;;;-5.72;84.65
19208;BME280;9737;59.466;18.036;2023-12-14T02:31:22;92766.50;;;-5.70;84.39
19208;BME280;9737;59.466;18.036;2023-12-14T02:33:51;92753.19;;;-5.74;84.34
19208;BME280;9737;59.466;18.036;2023-12-14T02:36:19;92760.13;;;-5.74;84.33
19208;BME280;9737;59.466;18.036;2023-12-14T02:38:47;92765.09;;;-5.73;84.13
19208;BME280;9737;59.466;18.036;2023-12-14T02:41:17;92763.13;;;-5.71;84.14
19208;BME280;9737;59.466;18.036;2023-12-14T02:43:44;92774.84;;;-5.68;84.13
19208;BME280;9737;59.466;18.036;2023-12-14T02:46:12;92770.88;;;-5.71;84.20
19208;BME280;9737;59.466;18.036;2023-12-14T02:48:42;92762.53;;;-5.73;84.42
19208;BME280;9737;59.466;18.036;2023-12-14T02:51:12;92764.09;;;-5.72;84.42
19208;BME280;9737;59.466;18.036;2023-12-14T02:53:41;92761.53;;;-5.72;84.24
19208;BME280;9737;59.466;18.036;2023-12-14T02:56:10;92782.19;;;-5.65;84.31
19208;BME280;9737;59.466;18.036;2023-12-14T02:58:39;92769.88;;;-5.70;84.32
19208;BME280;9737;59.466;18.036;2023-12-14T03:01:08;92784.19;;;-5.67;84.32
19208;BME280;9737;59.466;18.036;2023-12-14T03:03:38;92753.56;;;-5.83;84.24
19208;BME280;9737;59.466;18.036;2023-12-14T03:06:06;92817.59;;;-5.59;84.50
19208;BME280;9737;59.466;18.036;2023-12-14T03:08:34;92787.97;;;-5.70;84.13
19208;BME280;9737;59.466;18.036;2023-12-14T03:11:02;92783.19;;;-5.66;84.01
19208;BME280;9737;59.466;18.036;2023-12-14T03:13:30;92795.72;;;-5.63;84.16
19208;BME280;9737;59.466;18.036;2023-12-14T03:15:59;92789.97;;;-5.65;84.08
19208;BME280;9737;59.466;18.036;2023-12-14T03:18:28;92793.34;;;-5.65;84.10
19208;BME280;9737;59.466;18.036;2023-12-14T03:20:56;92772.25;;;-5.68;83.90
19208;BME280;9737;59.466;18.036;2023-12-14T03:23:24;92774.06;;;-5.69;84.27
19208;BME280;9737;59.466;18.036;2023-12-14T03:25:52;92805.66;;;-5.60;84.17
19208;BME280;9737;59.466;18.036;2023-12-14T03:28:25;92795.72;;;-5.70;84.35
19208;BME280;9737;59.466;18.036;2023-12-14T03:30:53;92783.19;;;-5.66;84.17
19208;BME280;9737;59.466;18.036;2023-12-14T03:33:22;92779.03;;;-5.67;83.91
19208;BME280;9737;59.466;18.036;2023-12-14T03:35:52;92793.34;;;-5.65;84.46
19208;BME280;9737;59.466;18.036;2023-12-14T03:38:20;92745.63;;;-5.75;84.36
19208;BME280;9737;59.466;18.036;2023-12-14T03:40:48;92745.63;;;-5.75;84.43
19208;BME280;9737;59.466;18.036;2023-12-14T03:43:15;92749.19;;;-5.76;84.27
19208;BME280;9737;59.466;18.036;2023-12-14T03:45:43;92761.31;;;-5.70;84.39
19208;BME280;9737;59.466;18.036;2023-12-14T03:48:12;92763.91;;;-5.70;84.28
19208;BME280;9737;59.466;18.036;2023-12-14T03:50:42;92769.09;;;-5.70;84.43
19208;BME280;9737;59.466;18.036;2023-12-14T03:53:10;92752.38;;;-5.74;84.12
19208;BME280;9737;59.466;18.036;2023-12-14T03:55:38;92733.28;;;-5.80;84.04
19208;BME280;9737;59.466;18.036;2023-12-14T03:58:06;92742.44;;;-5.77;84.05
19208;BME280;9737;59.466;18.036;2023-12-14T04:00:34;92770.66;;;-5.69;84.16
19208;BME280;9737;59.466;18.036;2023-12-14T04:03:03;92748.97;;;-5.81;84.09
19208;BME280;9737;59.466;18.036;2023-12-14T04:05:30;92752.38;;;-5.74;83.89
19208;BME280;9737;59.466;18.036;2023-12-14T04:08:00;92739.84;;;-5.77;84.03
19208;BME280;9737;59.466;18.036;2023-12-14T04:10:29;92763.91;;;-5.70;84.04
19208;BME280;9737;59.466;18.036;2023-12-14T04:12:56;92756.56;;;-5.73;84.14
19208;BME280;9737;59.466;18.036;2023-12-14T04:15:24;92783.19;;;-5.66;84.32
19208;BME280;9737;59.466;18.036;2023-12-14T04:17:52;92766.50;;;-5.70;84.00
19208;BME280;9737;59.466;18.036;2023-12-14T04:20:20;92768.09;;;-5.69;84.02
19208;BME280;9737;59.466;18.036;2023-12-14T04:22:48;92787.38;;;-5.65;84.07
19208;BME280;9737;59.466;18.036;2023-12-14T04:25:17;92797.31;;;-5.62;84.03
19208;BME280;9737;59.466;18.036;2023-12-14T04:27:45;92794.13;;;-5.64;84.14
19208;BME280;9737;59.466;18.036;2023-12-14T04:30:13;92783.00;;;-5.65;84.04
19208;BME280;9737;59.466;18.036;2023-12-14T04:32:40;92791.75;;;-5.66;84.22
19208;BME280;9737;59.466;18.036;2023-12-14T04:35:08;92772.25;;;-5.68;84.37
19208;BME280;9737;59.466;18.036;2023-12-14T04:37:36;92769.66;;;-5.68;84.11
19208;BME280;9737;59.466;18.036;2023-12-14T04:40:05;92738.06;;;-5.77;84.20
19208;BME280;9737;59.466;18.036;2023-12-14T04:42:35;92755.97;;;-5.75;84.06
19208;BME280;9737;59.466;18.036;2023-12-14T04:45:05;92742.44;;;-5.77;84.31
19208;BME280;9737;59.466;18.036;2023-12-14T04:47:35;92733.06;;;-5.78;84.18
19208;BME280;9737;59.466;18.036;2023-12-14T04:50:05;92735.66;;;-5.78;84.15
19208;BME280;9737;59.466;18.036;2023-12-14T04:52:33;92724.94;;;-5.82;84.32
19208;BME280;9737;59.466;18.036;2023-12-14T04:55:03;92757.16;;;-5.71;84.11
19208;BME280;9737;59.466;18.036;2023-12-14T04:57:31;92760.72;;;-5.72;83.94
19208;BME280;9737;59.466;18.036;2023-12-14T05:00:00;92744.81;;;-5.76;84.14
19208;BME280;9737;59.466;18.036;2023-12-14T05:02:28;92753.19;;;-5.74;83.95
19208;BME280;9737;59.466;18.036;2023-12-14T05:04:56;92776.44;;;-5.67;84.14
19208;BME280;9737;59.466;18.036;2023-12-14T05:07:24;92777.22;;;-5.67;83.92
19208;BME280;9737;59.466;18.036;2023-12-14T05:09:52;92769.66;;;-5.68;84.09
19208;BME280;9737;59.466;18.036;2023-12-14T05:12:20;92748.00;;;-5.74;84.12
19208;BME280;9737;59.466;18.036;2023-12-14T05:14:48;92735.06;;;-5.80;83.97
19208;BME280;9737;59.466;18.036;2023-12-14T05:17:17;92734.88;;;-5.85;84.18
19208;BME280;9737;59.466;18.036;2023-12-14T05:19:45;92745.03;;;-5.77;84.17
19208;BME280;9737;59.466;18.036;2023-12-14T05:22:13;92739.66;;;-5.76;83.97
19208;BME280;9737;59.466;18.036;2023-12-14T05:24:41;92736.28;;;-5.76;83.93
19208;BME280;9737;59.466;18.036;2023-12-14T05:27:09;92732.47;;;-5.80;84.15
19208;BME280;9737;59.466;18.036;2023-12-14T05:29:36;92750.38;;;-5.72;84.15
19208;BME280;9737;59.466;18.036;2023-12-14T05:32:05;92750.78;;;-5.75;84.13
19208;BME280;9737;59.466;18.036;2023-12-14T05:34:34;92747.22;;;-5.74;84.08
19208;BME280;9737;59.466;18.036;2023-12-14T05:37:02;92738.88;;;-5.76;83.97
19208;BME280;9737;59.466;18.036;2023-12-14T05:39:30;92744.63;;;-5.74;83.82
19208;BME280;9737;59.466;18.036;2023-12-14T05:41:58;92754.75;;;-5.73;84.01
19208;BME280;9737;59.466;18.036;2023-12-14T05:44:26;92751.38;;;-5.73;83.96
19208;BME280;9737;59.466;18.036;2023-12-14T05:46:54;92762.31;;;-5.71;83.96
19208;BME280;9737;59.466;18.036;2023-12-14T05:49:22;92762.31;;;-5.71;84.03
19208;BME280;9737;59.466;18.036;2023-12-14T05:51:51;92769.66;;;-5.68;84.21
19208;BME280;9737;59.466;18.036;2023-12-14T05:54:18;92745.63;;;-5.75;83.77
19208;BME280;9737;59.466;18.036;2023-12-14T05:56:47;92765.50;;;-5.69;84.07
19208;BME280;9737;59.466;18.036;2023-12-14T05:59:15;92752.97;;;-5.72;84.15
19208;BME280;9737;59.466;18.036;2023-12-14T06:01:42;92748.78;;;-5.80;84.61
19208;BME280;9737;59.466;18.036;2023-12-14T06:04:10;92750.78;;;-5.75;83.86
19208;BME280;9737;59.466;18.036;2023-12-14T06:06:38;92755.16;;;-5.76;84.04
19208;BME280;9737;59.466;18.036;2023-12-14T06:09:07;92770.66;;;-5.69;84.00
19208;BME280;9737;59.466;18.036;2023-12-14T06:11:35;92746.00;;;-5.78;84.13
19208;BME280;9737;59.466;18.036;2023-12-14T06:14:04;92753.19;;;-5.74;84.10
19208;BME280;9737;59.466;18.036;2023-12-14T06:16:31;92746.22;;;-5.73;84.24
19208;BME280;9737;59.466;18.036;2023-12-14T06:18:59;92759.13;;;-5.73;83.75
19208;BME280;9737;59.466;18.036;2023-12-14T06:21:27;92762.31;;;-5.71;84.29
19208;BME280;9737;59.466;18.036;2023-12-14T06:23:55;92764.72;;;-5.76;83.85
19208;BME280;9737;59.466;18.036;2023-12-14T06:26:25;92810.84;;;-5.60;83.92
19208;BME280;9737;59.466;18.036;2023-12-14T06:28:53;92761.13;;;-5.69;84.07
19208;BME280;9737;59.466;18.036;2023-12-14T06:31:21;92779.03;;;-5.67;84.06
19208;BME280;9737;59.466;18.036;2023-12-14T06:33:49;92798.09;;;-5.62;84.15
19208;BME280;9737;59.466;18.036;2023-12-14T06:36:17;92790.34;;;-5.62;83.84
19208;BME280;9737;59.466;18.036;2023-12-14T06:38:45;92810.44;;;-5.57;83.79
19208;BME280;9737;59.466;18.036;2023-12-14T06:41:19;92808.25;;;-5.60;84.31
19208;BME280;9737;59.466;18.036;2023-12-14T06:43:49;92802.09;;;-5.59;84.04
19208;BME280;9737;59.466;18.036;2023-12-14T06:46:17;92807.06;;;-5.57;83.85
19208;BME280;9737;59.466;18.036;2023-12-14T06:48:45;92799.72;;;-5.67;83.76
19208;BME280;9737;59.466;18.036;2023-12-14T06:51:14;92780.59;;;-5.66;84.00
19208;BME280;9737;59.466;18.036;2023-12-14T06:53:42;92756.34;;;-5.78;83.91
19208;BME280;9737;59.466;18.036;2023-12-14T06:56:10;92768.69;;;-5.67;83.85
19208;BME280;9737;59.466;18.036;2023-12-14T06:58:39;92763.13;;;-5.71;84.08
19208;BME280;9737;59.466;18.036;2023-12-14T07:01:12;92739.06;;;-5.78;83.84
19208;BME280;9737;59.466;18.036;2023-12-14T07:03:40;92757.56;;;-5.74;84.03
19208;BME280;9737;59.466;18.036;2023-12-14T07:06:11;92745.63;;;-5.75;83.97
19208;BME280;9737;59.466;18.036;2023-12-14T07:08:40;92778.22;;;-5.68;83.94
19208;BME280;9737;59.466;18.036;2023-12-14T07:11:08;92799.09;;;-5.63;84.02
19208;BME280;9737;59.466;18.036;2023-12-14T07:13:36;92804.66;;;-5.59;83.81
19208;BME280;9737;59.466;18.036;2023-12-14T07:16:05;92785.38;;;-5.63;83.93
19208;BME280;9737;59.466;18.036;2023-12-14T07:18:36;92791.53;;;-5.64;83.86
19208;BME280;9737;59.466;18.036;2023-12-14T07:21:05;92787.38;;;-5.65;83.94
19208;BME280;9737;59.466;18.036;2023-12-14T07:23:33;92784.97;;;-5.67;84.08
19208;BME280;9737;59.466;18.036;2023-12-14T07:26:01;92799.69;;;-5.61;84.11
19208;BME280;9737;59.466;18.036;2023-12-14T07:28:33;92828.72;;;-5.52;84.00
19208;BME280;9737;59.466;18.036;2023-12-14T07:31:01;92823.97;;;-5.55;83.75
19208;BME280;9737;59.466;18.036;2023-12-14T07:33:29;92784.19;;;-5.67;84.01
19208;BME280;9737;59.466;18.036;2023-12-14T07:35:58;92805.88;;;-5.62;84.00
19208;BME280;9737;59.466;18.036;2023-12-14T07:38:29;92785.78;;;-5.66;83.88
19208;BME280;9737;59.466;18.036;2023-12-14T07:40:58;92788.97;;;-5.64;83.91
19208;BME280;9737;59.466;18.036;2023-12-14T07:43:26;92807.25;;;-5.59;83.95
19208;BME280;9737;59.466;18.036;2023-12-14T07:45:54;92802.09;;;-5.59;83.95
19208;BME280;9737;59.466;18.036;2023-12-14T07:48:22;92809.63;;;-5.57;83.67
19208;BME280;9737;59.466;18.036;2023-12-14T07:50:50;92788.97;;;-5.64;83.86
19208;BME280;9737;59.466;18.036;2023-12-14T07:53:19;92796.91;;;-5.59;83.90
19208;BME280;9737;59.466;18.036;2023-12-14T07:55:48;92787.97;;;-5.63;83.65
19208;BME280;9737;59.466;18.036;2023-12-14T07:58:16;92740.88;;;-5.91;84.19
19208;BME280;9737;59.466;18.036;2023-12-14T08:00:44;92792.94;;;-5.62;83.77
19208;BME280;9737;59.466;18.036;2023-12-14T08:03:12;92784.00;;;-5.66;83.79
19208;BME280;9737;59.466;18.036;2023-12-14T08:05:40;92778.22;;;-5.68;84.09
19208;BME280;9737;59.466;18.036;2023-12-14T08:08:07;92774.84;;;-5.68;83.85
19208;BME280;9737;59.466;18.036;2023-12-14T08:10:37;92746.41;;;-5.75;83.98
19208;BME280;9737;59.466;18.036;2023-12-14T08:13:05;92765.50;;;-5.69;83.87
19208;BME280;9737;59.466;18.036;2023-12-14T08:15:32;92772.25;;;-5.68;84.06
19208;BME280;9737;59.466;18.036;2023-12-14T08:18:00;92761.91;;;-5.68;84.06
19208;BME280;9737;59.466;18.036;2023-12-14T08:20:28;92770.66;;;-5.69;84.19
19208;BME280;9737;59.466;18.036;2023-12-14T08:22:56;92772.25;;;-5.68;84.20
19208;BME280;9737;59.466;18.036;2023-12-14T08:25:25;92768.69;;;-5.67;84.03
19208;BME280;9737;59.466;18.036;2023-12-14T08:27:54;92768.69;;;-5.67;83.81
19208;BME280;9737;59.466;18.036;2023-12-14T08:30:22;92780.59;;;-5.66;83.85
19208;BME280;9737;59.466;18.036;2023-12-14T08:32:50;92801.50;;;-5.61;83.89
19208;BME280;9737;59.466;18.036;2023-12-14T08:35:18;92797.91;;;-5.60;84.05
19208;BME280;9737;59.466;18.036;2023-12-14T08:37:46;92814.00;;;-5.58;83.94
19208;BME280;9737;59.466;18.036;2023-12-14T08:40:14;92777.03;;;-5.65;83.99
19208;BME280;9737;59.466;18.036;2023-12-14T08:42:42;92763.13;;;-5.71;84.06
19208;BME280;9737;59.466;18.036;2023-12-14T08:45:11;92758.75;;;-5.70;83.92
19208;BME280;9737;59.466;18.036;2023-12-14T08:47:39;92778.03;;;-5.66;84.07
19208;BME280;9737;59.466;18.036;2023-12-14T08:50:07;92778.63;;;-5.64;84.17
19208;BME280;9737;59.466;18.036;2023-12-14T08:52:35;92762.72;;;-5.68;84.04
19208;BME280;9737;59.466;18.036;2023-12-14T08:55:05;92777.03;;;-5.65;83.87
19208;BME280;9737;59.466;18.036;2023-12-14T08:57:33;92777.03;;;-5.65;83.83
19208;BME280;9737;59.466;18.036;2023-12-14T09:00:01;92776.44;;;-5.67;83.95
19208;BME280;9737;59.466;18.036;2023-12-14T09:02:32;92776.63;;;-5.69;83.88
19208;BME280;9737;59.466;18.036;2023-12-14T09:05:01;92796.91;;;-5.59;84.02
19208;BME280;9737;59.466;18.036;2023-12-14T09:07:29;92799.50;;;-5.59;83.91
19208;BME280;9737;59.466;18.036;2023-12-14T09:09:58;92776.22;;;-5.66;83.85
19208;BME280;9737;59.466;18.036;2023-12-14T09:12:26;92792.72;;;-5.60;83.91
19208;BME280;9737;59.466;18.036;2023-12-14T09:14:54;92802.09;;;-5.59;83.90
19208;BME280;9737;59.466;18.036;2023-12-14T09:17:22;92808.84;;;-5.58;83.96
19208;BME280;9737;59.466;18.036;2023-12-14T09:19:51;92797.72;;;-5.58;83.97
19208;BME280;9737;59.466;18.036;2023-12-14T09:22:19;92797.91;;;-5.60;83.95
19208;BME280;9737;59.466;18.036;2023-12-14T09:24:47;92795.31;;;-5.60;83.60
19208;BME280;9737;59.466;18.036;2023-12-14T09:27:15;92796.91;;;-5.59;84.01
19208;BME280;9737;59.466;18.036;2023-12-14T09:29:42;92798.09;;;-5.62;83.85
19208;BME280;9737;59.466;18.036;2023-12-14T09:32:10;92789.56;;;-5.62;83.73
19208;BME280;9737;59.466;18.036;2023-12-14T09:34:38;92768.69;;;-5.67;83.58
19208;BME280;9737;59.466;18.036;2023-12-14T09:37:07;92789.75;;;-5.64;83.89
19208;BME280;9737;59.466;18.036;2023-12-14T09:39:35;92795.72;;;-5.63;84.24
19208;BME280;9737;59.466;18.036;2023-12-14T09:42:04;92822.16;;;-5.54;84.21
19208;BME280;9737;59.466;18.036;2023-12-14T09:44:33;92828.72;;;-5.52;83.99
19208;BME280;9737;59.466;18.036;2023-12-14T09:47:02;92835.28;;;-5.49;83.90
19208;BME280;9737;59.466;18.036;2023-12-14T09:49:30;92841.88;;;-5.47;84.12
19208;BME280;9737;59.466;18.036;2023-12-14T09:51:59;92826.13;;;-5.52;83.95
19208;BME280;9737;59.466;18.036;2023-12-14T09:54:29;92815.59;;;-5.57;83.96
19208;BME280;9737;59.466;18.036;2023-12-14T09:56:56;92830.31;;;-5.51;83.97
19208;BME280;9737;59.466;18.036;2023-12-14T09:59:24;92821.97;;;-5.53;83.92
19208;BME280;9737;59.466;18.036;2023-12-14T10:01:52;92825.53;;;-5.54;84.01
19208;BME280;9737;59.466;18.036;2023-12-14T10:04:21;92823.56;;;-5.52;83.82
19208;BME280;9737;59.466;18.036;2023-12-14T10:06:50;92846.25;;;-5.47;83.84
19208;BME280;9737;59.466;18.036;2023-12-14T10:09:22;92845.47;;;-5.48;84.03
19208;BME280;9737;59.466;18.036;2023-12-14T10:12:02;92840.28;;;-5.48;83.84
19208;BME280;9737;59.466;18.036;2023-12-14T10:14:31;92826.13;;;-5.52;83.82
19208;BME280;9737;59.466;18.036;2023-12-14T10:17:13;92833.53;;;-5.49;83.99
19208;BME280;9737;59.466;18.036;2023-12-14T10:19:42;92849.63;;;-5.47;84.05
19208;BME280;9737;59.466;18.036;2023-12-14T10:22:10;92837.06;;;-5.50;83.85
19208;BME280;9737;59.466;18.036;2023-12-14T10:24:38;92839.06;;;-5.52;84.00
19208;BME280;9737;59.466;18.036;2023-12-14T10:27:08;92855.81;;;-5.48;83.82
19208;BME280;9737;59.466;18.036;2023-12-14T10:29:37;92851.44;;;-5.47;84.00
19208;BME280;9737;59.466;18.036;2023-12-14T10:32:06;92860.38;;;-5.56;83.97
19208;BME280;9737;59.466;18.036;2023-12-14T10:34:35;92882.06;;;-5.38;83.83
19208;BME280;9737;59.466;18.036;2023-12-14T10:37:05;92845.25;;;-5.46;84.03
19208;BME280;9737;59.466;18.036;2023-12-14T10:39:33;92856.22;;;-5.44;83.82
19208;BME280;9737;59.466;18.036;2023-12-14T10:42:02;92857.78;;;-5.43;83.95
19208;BME280;9737;59.466;18.036;2023-12-14T10:44:48;92907.94;;;-5.31;83.64
19208;BME280;9737;59.466;18.036;2023-12-14T10:47:37;92886.25;;;-5.37;83.96
19208;BME280;9737;59.466;18.036;2023-12-14T10:50:10;92874.72;;;-5.41;83.89
19208;BME280;9737;59.466;18.036;2023-12-14T10:52:39;92904.34;;;-5.30;83.82
19208;BME280;9737;59.466;18.036;2023-12-14T10:55:10;92903.16;;;-5.34;83.95
19208;BME280;9737;59.466;18.036;2023-12-14T10:57:39;92879.28;;;-5.43;84.01
19208;BME280;9737;59.466;18.036;2023-12-14T11:00:12;92891.00;;;-5.34;83.85
19208;BME280;9737;59.466;18.036;2023-12-14T11:02:45;92890.41;;;-5.36;83.90
19208;BME280;9737;59.466;18.036;2023-12-14T11:05:15;92876.09;;;-5.38;83.78
19208;BME280;9737;59.466;18.036;2023-12-14T11:07:47;92864.75;;;-5.44;83.82
19208;BME280;9737;59.466;18.036;2023-12-14T11:10:20;92873.31;;;-5.43;83.88
19208;BME280;9737;59.466;18.036;2023-12-14T11:13:01;92888.03;;;-5.37;83.65
19208;BME280;9737;59.466;18.036;2023-12-14T11:15:33;92874.72;;;-5.41;83.91
19208;BME280;9737;59.466;18.036;2023-12-14T11:18:21;92914.69;;;-5.30;83.67
19208;BME280;9737;59.466;18.036;2023-12-14T11:20:50;92926.03;;;-5.24;83.89
19208;BME280;9737;59.466;18.036;2023-12-14T11:23:27;92892.00;;;-5.35;83.88
19208;BME280;9737;59.466;18.036;2023-12-14T11:25:58;92892.00;;;-5.35;83.82
19208;BME280;9737;59.466;18.036;2023-12-14T11:28:27;92892.00;;;-5.35;83.76
19208;BME280;9737;59.466;18.036;2023-12-14T11:30:57;92892.59;;;-5.33;83.94
19208;BME280;9737;59.466;18.036;2023-12-14T11:33:26;92901.97;;;-5.32;83.86
19208;BME280;9737;59.466;18.036;2023-12-14T11:35:55;92903.56;;;-5.31;83.72
19208;BME280;9737;59.466;18.036;2023-12-14T11:38:24;92894.19;;;-5.32;83.85
19208;BME280;9737;59.466;18.036;2023-12-14T11:40:52;92888.84;;;-5.37;83.88
19208;BME280;9737;59.466;18.036;2023-12-14T11:43:20;92902.97;;;-5.33;83.60
19208;BME280;9737;59.466;18.036;2023-12-14T11:45:49;92922.84;;;-5.26;83.91
19208;BME280;9737;59.466;18.036;2023-12-14T11:48:18;92888.84;;;-5.37;83.90
19208;BME280;9737;59.466;18.036;2023-12-14T11:50:47;92883.66;;;-5.37;83.98
19208;BME280;9737;59.466;18.036;2023-12-14T11:53:15;92921.84;;;-5.25;83.99
19208;BME280;9737;59.466;18.036;2023-12-14T11:55:44;92916.50;;;-5.31;83.86
19208;BME280;9737;59.466;18.036;2023-12-14T11:58:13;92923.66;;;-5.26;83.77
19208;BME280;9737;59.466;18.036;2023-12-14T12:00:43;92888.03;;;-5.37;83.94
19208;BME280;9737;59.466;18.036;2023-12-14T12:03:14;92902.75;;;-5.31;83.77
19208;BME280;9737;59.466;18.036;2023-12-14T12:05:45;92872.91;;;-5.40;83.99
19208;BME280;9737;59.466;18.036;2023-12-14T12:08:15;92892.00;;;-5.35;83.71
19208;BME280;9737;59.466;18.036;2023-12-14T12:10:46;92877.28;;;-5.41;83.77
19208;BME280;9737;59.466;18.036;2023-12-14T12:13:16;92872.13;;;-5.41;83.80
19208;BME280;9737;59.466;18.036;2023-12-14T12:15:44;92877.09;;;-5.39;84.10
19208;BME280;9737;59.466;18.036;2023-12-14T12:18:14;92887.03;;;-5.36;84.05
19208;BME280;9737;59.466;18.036;2023-12-14T12:20:45;92871.13;;;-5.40;83.52
19208;BME280;9737;59.466;18.036;2023-12-14T12:23:13;92917.88;;;-5.28;83.75
19208;BME280;9737;59.466;18.036;2023-12-14T12:25:42;92910.13;;;-5.28;84.00
19208;BME280;9737;59.466;18.036;2023-12-14T12:28:10;92878.47;;;-5.37;83.98
19208;BME280;9737;59.466;18.036;2023-12-14T12:30:38;92880.47;;;-5.39;83.77
19208;BME280;9737;59.466;18.036;2023-12-14T12:33:07;92889.63;;;-5.36;83.87
19208;BME280;9737;59.466;18.036;2023-12-14T12:35:35;92885.25;;;-5.36;83.71
19208;BME280;9737;59.466;18.036;2023-12-14T12:38:04;92887.25;;;-5.38;83.87
19208;BME280;9737;59.466;18.036;2023-12-14T12:40:32;92880.28;;;-5.37;83.96
19208;BME280;9737;59.466;18.036;2023-12-14T12:43:00;92877.69;;;-5.37;83.31
19208;BME280;9737;59.466;18.036;2023-12-14T12:45:29;92876.09;;;-5.38;83.82
19208;BME280;9737;59.466;18.036;2023-12-14T12:47:58;92864.75;;;-5.44;83.66
19208;BME280;9737;59.466;18.036;2023-12-14T12:50:26;92838.88;;;-5.50;84.01
19208;BME280;9737;59.466;18.036;2023-12-14T12:52:55;92847.06;;;-5.47;83.74
19208;BME280;9737;59.466;18.036;2023-12-14T12:55:24;92853.81;;;-5.46;83.84
19208;BME280;9737;59.466;18.036;2023-12-14T12:57:52;92848.06;;;-5.48;83.83
19208;BME280;9737;59.466;18.036;2023-12-14T13:00:20;92847.06;;;-5.47;83.69
19208;BME280;9737;59.466;18.036;2023-12-14T13:02:49;92821.97;;;-5.53;84.05
19208;BME280;9737;59.466;18.036;2023-12-14T13:05:17;92828.72;;;-5.52;83.60
19208;BME280;9737;59.466;18.036;2023-12-14T13:07:45;92815.41;;;-5.55;84.06